Time;durP1;ratioP1;P1;durP2;ratioP2;P2;SDS_P1;SDS_P2;PMS_P1;PMS_P2;Temp;Humidity;BMP_temperature;BMP_pressure;BME280_temperature;BME280_humidity;BME280_pressure;Samples;Min_cycle;Max_cycle;Signal;HPM_P1;HPM_P2
2020/12/09 00:00:47;;;;;;;;;34.00;30.75;;;;;;;;4991669;28;11559;-81
2020/12/09 00:03:15;;;;;;;;;29.75;26.50;;;;;;;;4994830;28;11665;-81
2020/12/09 00:05:42;;;;;;;;;55.00;45.00;;;;;;;;5007520;28;11574;-81
2020/12/09 00:08:09;;;;;;;;;31.50;29.00;;;;;;;;4995694;28;11608;-82
2020/12/09 00:10:37;;;;;;;;;31.00;28.25;;;;;;;;4997090;28;11601;-80
2020/12/09 00:13:04;;;;;;;;;42.50;35.25;;;;;;;;4999730;28;11601;-80
2020/12/09 00:15:32;;;;;;;;;66.33;46.67;;;;;;;;4998266;28;11612;-82
2020/12/09 00:17:59;;;;;;;;;26.75;26.75;;;;;;;;4995677;28;11638;-82
2020/12/09 00:20:26;;;;;;;;;35.00;27.00;;;;;;;;4996132;28;11663;-81
2020/12/09 00:22:53;;;;;;;;;28.00;22.75;;;;;;;;4995606;28;11609;-79
2020/12/09 00:25:20;;;;;;;;;16.25;13.50;;;;;;;;4999580;28;11704;-80
2020/12/09 00:27:47;;;;;;;;;35.00;31.75;;;;;;;;4995952;28;11607;-82
2020/12/09 00:30:15;;;;;;;;;37.75;29.25;;;;;;;;4997072;28;11612;-82
2020/12/09 00:32:42;;;;;;;;;35.50;31.50;;;;;;;;4995993;28;11639;-81
2020/12/09 00:35:09;;;;;;;;;45.25;34.00;;;;;;;;4999907;28;11646;-81
2020/12/09 00:37:37;;;;;;;;;36.25;29.50;;;;;;;;4996755;28;11609;-83
2020/12/09 00:40:05;;;;;;;;;37.25;33.00;;;;;;;;5000306;28;11707;-83
2020/12/09 00:42:32;;;;;;;;;29.75;28.25;;;;;;;;4994086;28;11596;-83
2020/12/09 00:44:59;;;;;;;;;35.00;25.00;;;;;;;;4995684;28;11620;-81
2020/12/09 00:47:26;;;;;;;;;33.00;29.00;;;;;;;;4998889;28;11615;-81
2020/12/09 00:50:27;;;;;;;;;41.75;31.25;;;;;;;;4996048;28;11582;-82
2020/12/09 00:52:47;;;;;;;;;32.75;28.00;;;;;;;;4995771;28;11600;-78
2020/12/09 00:55:14;;;;;;;;;34.75;27.75;;;;;;;;4992798;28;11613;-82
2020/12/09 00:57:41;;;;;;;;;38.25;33.00;;;;;;;;4993720;28;13408;-82
2020/12/09 01:00:08;;;;;;;;;34.00;28.00;;;;;;;;4994696;28;11670;-82
2020/12/09 01:02:35;;;;;;;;;32.25;30.25;;;;;;;;4997639;28;11652;-83
2020/12/09 01:05:03;;;;;;;;;27.75;26.50;;;;;;;;4992272;28;12424;-80
2020/12/09 01:07:30;;;;;;;;;20.00;13.50;;;;;;;;4996840;28;11609;-81
2020/12/09 01:09:58;;;;;;;;;33.50;27.25;;;;;;;;4993765;28;11644;-81
2020/12/09 01:12:25;;;;;;;;;33.25;25.50;;;;;;;;4993141;28;11651;-81
2020/12/09 01:14:52;;;;;;;;;31.75;27.25;;;;;;;;5000687;28;11630;-79
2020/12/09 01:17:19;;;;;;;;;24.00;19.50;;;;;;;;5000994;28;11658;-80
2020/12/09 01:19:46;;;;;;;;;41.00;32.50;;;;;;;;5002581;28;11628;-81
2020/12/09 01:22:13;;;;;;;;;110.67;78.67;;;;;;;;5008093;28;11640;-82
2020/12/09 01:24:39;;;;;;;;;36.50;35.00;;;;;;;;5002638;28;8883;-80
2020/12/09 01:27:07;;;;;;;;;46.25;36.25;;;;;;;;5001358;28;11643;-81
2020/12/09 01:29:34;;;;;;;;;33.33;26.67;;;;;;;;4995860;28;11753;-81
2020/12/09 01:32:02;;;;;;;;;35.33;31.00;;;;;;;;4995363;28;11585;-80
2020/12/09 01:34:29;;;;;;;;;35.75;26.25;;;;;;;;4992711;28;11611;-82
2020/12/09 01:36:59;;;;;;;;;43.33;35.33;;;;;;;;4994431;28;11645;-81
2020/12/09 01:39:25;;;;;;;;;26.33;20.33;;;;;;;;4993727;28;12472;-81
2020/12/09 01:41:52;;;;;;;;;35.00;27.25;;;;;;;;4992608;28;12270;-82
2020/12/09 01:44:20;;;;;;;;;33.00;31.75;;;;;;;;4993987;28;11674;-81
2020/12/09 01:46:47;;;;;;;;;33.25;27.00;;;;;;;;4998948;28;11642;-82
2020/12/09 01:49:14;;;;;;;;;25.25;23.00;;;;;;;;4996693;28;11654;-82
2020/12/09 01:51:41;;;;;;;;;44.67;38.00;;;;;;;;4993931;28;11654;-81
2020/12/09 01:54:08;;;;;;;;;39.50;35.75;;;;;;;;4995650;28;8870;-81
2020/12/09 01:56:35;;;;;;;;;39.75;32.25;;;;;;;;4995141;28;11636;-81
2020/12/09 01:59:01;;;;;;;;;34.00;33.00;;;;;;;;4994409;28;11642;-81
2020/12/09 02:01:31;;;;;;;;;48.50;39.00;;;;;;;;4992158;28;11583;-81
2020/12/09 02:03:58;;;;;;;;;42.00;37.25;;;;;;;;4978963;28;11642;-82
2020/12/09 02:06:25;;;;;;;;;37.25;31.75;;;;;;;;4997233;28;11640;-81
2020/12/09 02:08:52;;;;;;;;;45.50;40.25;;;;;;;;4997718;28;11673;-81
2020/12/09 02:11:18;;;;;;;;;27.75;26.25;;;;;;;;4994674;28;11642;-83
2020/12/09 02:13:46;;;;;;;;;34.00;29.75;;;;;;;;4995112;28;11651;-83
2020/12/09 02:16:14;;;;;;;;;27.50;25.50;;;;;;;;4995850;28;12425;-82
2020/12/09 02:18:42;;;;;;;;;33.50;29.00;;;;;;;;4997089;28;11707;-82
2020/12/09 02:21:09;;;;;;;;;41.75;31.50;;;;;;;;4995549;28;11636;-82
2020/12/09 02:23:37;;;;;;;;;33.50;28.00;;;;;;;;4998106;28;11665;-82
2020/12/09 02:26:04;;;;;;;;;45.33;37.33;;;;;;;;4996662;28;12439;-82
2020/12/09 02:28:31;;;;;;;;;41.00;36.00;;;;;;;;4991623;28;11609;-83
2020/12/09 02:30:58;;;;;;;;;32.25;26.75;;;;;;;;4992331;28;11661;-81
2020/12/09 02:33:24;;;;;;;;;37.00;33.00;;;;;;;;4995465;28;11644;-77
2020/12/09 02:35:51;;;;;;;;;39.33;36.00;;;;;;;;4991433;28;11656;-81
2020/12/09 02:38:18;;;;;;;;;29.33;27.33;;;;;;;;4994102;28;11673;-82
2020/12/09 02:40:46;;;;;;;;;38.67;29.67;;;;;;;;4991619;28;11631;-81
2020/12/09 02:43:13;;;;;;;;;32.67;25.33;;;;;;;;4995906;28;11638;-83
2020/12/09 02:45:40;;;;;;;;;24.67;24.67;;;;;;;;4992743;28;11642;-82
2020/12/09 02:48:07;;;;;;;;;28.00;26.00;;;;;;;;4994447;28;11638;-81
2020/12/09 02:50:34;;;;;;;;;35.67;28.00;;;;;;;;4997100;28;12422;-82
2020/12/09 02:53:00;;;;;;;;;36.00;30.00;;;;;;;;4995031;28;11704;-82
2020/12/09 02:55:27;;;;;;;;;31.25;29.50;;;;;;;;4996641;28;11607;-82
2020/12/09 02:57:55;;;;;;;;;36.25;29.75;;;;;;;;4992950;28;11605;-82
2020/12/09 03:00:22;;;;;;;;;40.50;29.75;;;;;;;;4993558;28;11638;-82
2020/12/09 03:02:49;;;;;;;;;40.67;32.67;;;;;;;;4990845;28;11602;-82
2020/12/09 03:05:15;;;;;;;;;38.00;33.33;;;;;;;;4993975;28;11639;-82
2020/12/09 03:07:42;;;;;;;;;34.33;28.67;;;;;;;;4993760;28;11644;-82
2020/12/09 03:10:09;;;;;;;;;41.00;33.00;;;;;;;;4991207;28;11663;-81
2020/12/09 03:12:36;;;;;;;;;46.33;35.33;;;;;;;;4997676;28;11652;-82
2020/12/09 03:15:04;;;;;;;;;43.00;38.00;;;;;;;;4994818;28;11670;-82
2020/12/09 03:17:31;;;;;;;;;45.33;31.67;;;;;;;;4992603;28;11659;-82
2020/12/09 03:19:58;;;;;;;;;37.00;27.33;;;;;;;;4992131;28;11665;-82
2020/12/09 03:22:25;;;;;;;;;48.33;37.33;;;;;;;;5003884;28;11627;-82
2020/12/09 03:24:52;;;;;;;;;40.67;31.33;;;;;;;;4998306;28;11750;-82
2020/12/09 03:27:19;;;;;;;;;32.67;29.33;;;;;;;;4997219;28;11809;-84
2020/12/09 03:29:46;;;;;;;;;39.67;30.33;;;;;;;;4997015;28;11656;-82
2020/12/09 03:32:14;;;;;;;;;47.67;34.33;;;;;;;;4992652;28;11582;-82
2020/12/09 03:34:41;;;;;;;;;22.00;19.33;;;;;;;;5000518;28;11674;-81
2020/12/09 03:37:08;;;;;;;;;47.67;31.67;;;;;;;;4997385;28;8870;-84
2020/12/09 03:39:35;;;;;;;;;46.00;39.00;;;;;;;;4993875;28;11654;-85
2020/12/09 03:42:02;;;;;;;;;50.67;37.33;;;;;;;;4990431;28;8906;-83
2020/12/09 03:44:29;;;;;;;;;43.67;30.67;;;;;;;;4996970;28;8944;-83
2020/12/09 03:46:59;;;;;;;;;42.33;37.00;;;;;;;;4993767;28;8862;-80
2020/12/09 03:49:27;;;;;;;;;39.33;35.00;;;;;;;;4996555;28;8912;-81
2020/12/09 03:51:54;;;;;;;;;37.00;32.00;;;;;;;;4995525;28;8876;-83
2020/12/09 03:54:21;;;;;;;;;40.33;37.00;;;;;;;;4982510;28;8930;-83
2020/12/09 03:56:48;;;;;;;;;38.67;34.00;;;;;;;;4999911;28;8859;-83
2020/12/09 03:59:15;;;;;;;;;46.00;38.00;;;;;;;;4995115;28;8858;-83
2020/12/09 04:01:42;;;;;;;;;34.33;31.67;;;;;;;;4992010;28;8842;-83
2020/12/09 04:04:08;;;;;;;;;37.67;30.67;;;;;;;;4994448;28;8930;-83
2020/12/09 04:06:37;;;;;;;;;28.67;28.00;;;;;;;;4992342;28;9576;-83
2020/12/09 04:09:04;;;;;;;;;21.67;21.67;;;;;;;;4996864;28;8859;-82
2020/12/09 04:11:31;;;;;;;;;44.67;40.00;;;;;;;;4997809;28;8952;-81
2020/12/09 04:13:58;;;;;;;;;38.00;30.67;;;;;;;;4995461;28;9637;-82
2020/12/09 04:16:25;;;;;;;;;33.00;28.00;;;;;;;;4990349;28;8893;-83
2020/12/09 04:18:52;;;;;;;;;51.67;31.00;;;;;;;;4991729;28;8909;-82
2020/12/09 04:21:19;;;;;;;;;37.33;32.33;;;;;;;;4995975;28;8831;-83
2020/12/09 04:23:47;;;;;;;;;36.00;35.33;;;;;;;;4998287;28;8874;-82
2020/12/09 04:26:14;;;;;;;;;148.75;118.75;;;;;;;;5017614;28;9659;-80
2020/12/09 04:28:40;;;;;;;;;37.33;34.67;;;;;;;;4995395;28;8915;-82
2020/12/09 04:31:07;;;;;;;;;36.67;34.67;;;;;;;;5001175;28;8873;-82
2020/12/09 04:33:34;;;;;;;;;47.00;40.67;;;;;;;;5000718;28;8886;-80
2020/12/09 04:36:03;;;;;;;;;48.00;39.00;;;;;;;;4996004;28;8873;-82
2020/12/09 04:38:30;;;;;;;;;48.33;41.67;;;;;;;;4999477;28;8890;-81
2020/12/09 04:40:58;;;;;;;;;46.67;43.00;;;;;;;;4993233;28;8882;-82
2020/12/09 04:43:25;;;;;;;;;54.33;45.33;;;;;;;;5000359;28;8849;-82
2020/12/09 04:45:52;;;;;;;;;43.33;39.67;;;;;;;;4994516;28;8875;-81
2020/12/09 04:48:25;;;;;;;;;43.67;37.67;;;;;;;;5004724;28;9632;-80
2020/12/09 04:51:20;;;;;;;;;42.33;37.33;;;;;;;;5002044;28;8911;-81
2020/12/09 04:53:56;;;;;;;;;58.67;47.00;;;;;;;;4995684;28;8900;-81
2020/12/09 04:56:28;;;;;;;;;38.33;34.33;;;;;;;;4989521;28;8865;-81
2020/12/09 04:58:56;;;;;;;;;57.67;41.33;;;;;;;;4995013;28;8875;-81
2020/12/09 05:01:23;;;;;;;;;33.33;32.00;;;;;;;;4996455;28;8834;-80
2020/12/09 05:03:52;;;;;;;;;63.33;47.33;;;;;;;;4994067;28;9644;-81
2020/12/09 05:06:20;;;;;;;;;62.00;49.67;;;;;;;;4996678;28;9652;-80
2020/12/09 05:08:53;;;;;;;;;53.00;46.00;;;;;;;;4994449;28;8881;-82
2020/12/09 05:11:22;;;;;;;;;53.33;45.33;;;;;;;;4999241;28;8897;-81
2020/12/09 05:13:53;;;;;;;;;56.67;44.00;;;;;;;;4993447;28;9667;-82
2020/12/09 05:16:21;;;;;;;;;43.67;41.67;;;;;;;;4999605;28;9533;-84
2020/12/09 05:18:48;;;;;;;;;50.33;39.33;;;;;;;;5003416;28;8879;-83
2020/12/09 05:21:17;;;;;;;;;38.33;36.00;;;;;;;;4991057;28;8943;-82
2020/12/09 05:23:46;;;;;;;;;42.00;41.33;;;;;;;;4998294;28;8931;-82
2020/12/09 05:26:19;;;;;;;;;49.33;44.00;;;;;;;;4993314;28;8885;-82
2020/12/09 05:28:47;;;;;;;;;63.00;51.33;;;;;;;;4992566;28;8885;-80
2020/12/09 05:31:24;;;;;;;;;51.33;48.00;;;;;;;;4994280;28;8836;-81
2020/12/09 05:33:52;;;;;;;;;51.00;47.33;;;;;;;;4996753;28;8850;-81
2020/12/09 05:36:19;;;;;;;;;54.33;48.67;;;;;;;;4998249;28;9015;-82
2020/12/09 05:38:46;;;;;;;;;40.00;40.00;;;;;;;;4994708;28;8873;-80
2020/12/09 05:41:14;;;;;;;;;158.25;124.00;;;;;;;;4994625;28;8857;-80
2020/12/09 05:43:43;;;;;;;;;45.33;44.33;;;;;;;;4994655;28;9081;-81
2020/12/09 05:46:10;;;;;;;;;43.33;38.67;;;;;;;;4994296;28;8905;-78
2020/12/09 05:48:39;;;;;;;;;54.00;49.00;;;;;;;;4999044;28;8853;-79
2020/12/09 05:51:06;;;;;;;;;51.00;46.00;;;;;;;;4993282;28;8889;-81
2020/12/09 05:53:35;;;;;;;;;57.00;50.00;;;;;;;;4991396;28;8893;-81
2020/12/09 05:56:12;;;;;;;;;56.00;49.67;;;;;;;;4996633;28;8912;-78
2020/12/09 05:58:40;;;;;;;;;49.00;45.00;;;;;;;;4997856;28;8937;-81
2020/12/09 06:01:17;;;;;;;;;63.33;53.33;;;;;;;;4991259;28;8826;-82
2020/12/09 06:03:46;;;;;;;;;55.00;49.67;;;;;;;;4993404;28;9262;-81
2020/12/09 06:06:19;;;;;;;;;41.67;41.67;;;;;;;;4992890;28;8886;-81
2020/12/09 06:08:48;;;;;;;;;50.00;46.33;;;;;;;;4997264;28;8999;-80
2020/12/09 06:11:17;;;;;;;;;56.00;47.33;;;;;;;;4997521;28;8905;-81
2020/12/09 06:13:44;;;;;;;;;55.33;46.33;;;;;;;;4990975;28;8877;-80
2020/12/09 06:16:12;;;;;;;;;60.67;45.67;;;;;;;;4995961;28;8885;-79
2020/12/09 06:18:43;;;;;;;;;45.33;43.67;;;;;;;;4995138;28;8854;-82
2020/12/09 06:21:11;;;;;;;;;65.00;50.67;;;;;;;;4990752;28;8911;-81
2020/12/09 06:23:39;;;;;;;;;61.67;46.67;;;;;;;;4994465;28;8865;-83
2020/12/09 06:26:06;;;;;;;;;55.67;49.67;;;;;;;;4994853;28;8948;-79
2020/12/09 06:28:34;;;;;;;;;46.00;44.00;;;;;;;;4998293;28;8870;-80
2020/12/09 06:31:11;;;;;;;;;51.00;45.33;;;;;;;;4988604;28;8823;-80
2020/12/09 06:33:40;;;;;;;;;60.67;49.67;;;;;;;;4999079;28;8903;-77
2020/12/09 06:36:17;;;;;;;;;48.67;46.33;;;;;;;;4987877;28;8889;-78
2020/12/09 06:39:12;;;;;;;;;54.33;49.67;;;;;;;;4992530;28;8879;-77
2020/12/09 06:41:41;;;;;;;;;56.67;49.00;;;;;;;;4988696;28;8907;-77
2020/12/09 06:44:10;;;;;;;;;56.67;47.33;;;;;;;;4997482;28;8902;-77
2020/12/09 06:46:45;;;;;;;;;58.67;51.33;;;;;;;;4996615;28;8900;-76
2020/12/09 06:49:34;;;;;;;;;54.00;47.33;;;;;;;;4995032;28;8893;-76
2020/12/09 06:52:03;;;;;;;;;58.00;51.67;;;;;;;;4989726;28;8887;-77
2020/12/09 06:54:38;;;;;;;;;61.67;48.67;;;;;;;;4993684;28;8875;-77
2020/12/09 06:57:20;;;;;;;;;68.00;54.00;;;;;;;;4996475;28;8886;-77
2020/12/09 06:59:48;;;;;;;;;47.67;40.33;;;;;;;;4976446;28;10192;-76
2020/12/09 07:02:27;;;;;;;;;56.67;49.00;;;;;;;;4971989;28;8876;-78
2020/12/09 07:05:08;;;;;;;;;43.67;43.00;;;;;;;;5003529;28;8966;-77
2020/12/09 07:07:38;;;;;;;;;70.67;52.33;;;;;;;;4920839;28;9853;-77
2020/12/09 07:10:10;;;;;;;;;34.67;32.33;;;;;;;;4968940;28;9065;-77
2020/12/09 07:12:37;;;;;;;;;52.67;47.33;;;;;;;;4982630;28;10109;-77
2020/12/09 07:15:04;;;;;;;;;49.33;40.67;;;;;;;;4981671;28;8903;-77
2020/12/09 07:17:32;;;;;;;;;41.67;37.67;;;;;;;;4973381;28;8911;-77
2020/12/09 07:19:59;;;;;;;;;63.33;48.00;;;;;;;;4979041;28;9638;-76
2020/12/09 07:22:27;;;;;;;;;51.33;47.00;;;;;;;;4987657;28;8895;-77
2020/12/09 07:24:55;;;;;;;;;51.00;45.00;;;;;;;;4975773;28;8888;-77
2020/12/09 07:27:25;;;;;;;;;51.00;45.33;;;;;;;;4976423;28;9002;-75
2020/12/09 07:29:54;;;;;;;;;46.00;41.00;;;;;;;;4984446;28;8952;-77
2020/12/09 07:32:23;;;;;;;;;55.33;49.33;;;;;;;;4972530;28;9700;-76
2020/12/09 07:34:57;;;;;;;;;55.67;48.67;;;;;;;;4973596;28;9007;-77
2020/12/09 07:37:25;;;;;;;;;64.33;54.33;;;;;;;;4974658;28;9580;-77
2020/12/09 07:39:53;;;;;;;;;76.67;60.33;;;;;;;;4967639;28;8889;-70
2020/12/09 07:42:22;;;;;;;;;58.00;50.33;;;;;;;;4974981;28;9703;-69
2020/12/09 07:44:50;;;;;;;;;71.00;57.67;;;;;;;;4977519;28;8895;-69
2020/12/09 07:47:26;;;;;;;;;58.67;50.67;;;;;;;;4975354;28;8897;-69
2020/12/09 07:49:54;;;;;;;;;57.00;47.33;;;;;;;;4972212;28;8878;-70
2020/12/09 07:52:23;;;;;;;;;54.00;48.00;;;;;;;;4973397;28;8857;-70
2020/12/09 07:54:53;;;;;;;;;57.67;49.00;;;;;;;;4979267;28;8883;-68
2020/12/09 07:57:29;;;;;;;;;53.33;49.00;;;;;;;;4968280;28;8887;-69
2020/12/09 07:59:57;;;;;;;;;54.33;48.67;;;;;;;;4983148;28;8890;-68
2020/12/09 08:02:26;;;;;;;;;60.00;50.67;;;;;;;;4986068;28;8946;-69
2020/12/09 08:05:08;;;;;;;;;54.33;49.00;;;;;;;;4985574;28;8875;-68
2020/12/09 08:07:35;;;;;;;;;45.33;45.00;;;;;;;;4986337;28;9761;-69
2020/12/09 08:10:09;;;;;;;;;46.33;45.33;;;;;;;;4976906;28;8869;-69
2020/12/09 08:12:37;;;;;;;;;51.33;46.67;;;;;;;;4978979;28;9006;-70
2020/12/09 08:15:05;;;;;;;;;49.67;46.67;;;;;;;;4977798;28;8870;-69
2020/12/09 08:17:33;;;;;;;;;46.00;44.33;;;;;;;;4974095;28;8862;-69
2020/12/09 08:20:01;;;;;;;;;61.33;48.00;;;;;;;;4975055;28;8960;-69
2020/12/09 08:22:29;;;;;;;;;49.00;45.33;;;;;;;;4985432;28;8919;-70
2020/12/09 08:25:06;;;;;;;;;66.00;51.00;;;;;;;;4986346;28;8878;-69
2020/12/09 08:27:41;;;;;;;;;54.67;47.33;;;;;;;;4985292;28;8914;-69
2020/12/09 08:30:12;;;;;;;;;50.67;47.33;;;;;;;;4977529;28;8877;-70
2020/12/09 08:32:59;;;;;;;;;60.33;49.33;;;;;;;;4968143;28;8892;-69
2020/12/09 08:35:27;;;;;;;;;64.67;53.33;;;;;;;;4982472;28;8936;-70
2020/12/09 08:37:54;;;;;;;;;63.00;50.00;;;;;;;;4984169;28;9020;-71
2020/12/09 08:40:21;;;;;;;;;59.00;48.33;;;;;;;;4977902;28;9034;-70
2020/12/09 08:42:58;;;;;;;;;59.33;48.67;;;;;;;;4976674;28;8832;-68
2020/12/09 08:45:25;;;;;;;;;62.67;50.33;;;;;;;;4978813;28;8926;-68
2020/12/09 08:47:53;;;;;;;;;61.00;52.33;;;;;;;;4973222;28;8884;-67
2020/12/09 08:50:20;;;;;;;;;51.67;46.00;;;;;;;;4973743;28;8865;-69
2020/12/09 08:52:47;;;;;;;;;70.67;57.67;;;;;;;;4976147;28;8864;-68
2020/12/09 08:55:14;;;;;;;;;49.33;44.00;;;;;;;;4980354;28;8923;-69
2020/12/09 08:57:41;;;;;;;;;57.67;51.33;;;;;;;;4978693;28;8914;-69
2020/12/09 09:00:09;;;;;;;;;56.00;47.33;;;;;;;;4985657;28;8869;-70
2020/12/09 09:02:36;;;;;;;;;55.33;48.00;;;;;;;;4984332;28;8853;-70
2020/12/09 09:05:04;;;;;;;;;47.67;42.67;;;;;;;;4978813;28;8877;-70
2020/12/09 09:07:30;;;;;;;;;42.33;39.67;;;;;;;;4969329;28;8897;-71
2020/12/09 09:09:57;;;;;;;;;51.33;44.00;;;;;;;;4972643;28;8905;-69
2020/12/09 09:12:24;;;;;;;;;52.33;41.67;;;;;;;;4976284;28;8886;-70
2020/12/09 09:14:51;;;;;;;;;62.67;47.00;;;;;;;;4973095;28;9027;-70
2020/12/09 09:17:19;;;;;;;;;52.00;47.00;;;;;;;;4974216;28;8864;-69
2020/12/09 09:19:46;;;;;;;;;38.00;35.00;;;;;;;;4976513;28;9634;-70
2020/12/09 09:22:13;;;;;;;;;57.67;46.67;;;;;;;;4974768;28;8915;-70
2020/12/09 09:24:40;;;;;;;;;54.33;47.67;;;;;;;;4980442;28;9114;-70
2020/12/09 09:27:10;;;;;;;;;55.33;44.33;;;;;;;;4978321;28;8884;-69
2020/12/09 09:29:38;;;;;;;;;58.67;49.67;;;;;;;;4976063;28;8897;-70
2020/12/09 09:32:05;;;;;;;;;57.67;47.00;;;;;;;;4979042;28;9601;-70
2020/12/09 09:34:33;;;;;;;;;59.33;50.33;;;;;;;;4976584;28;9478;-70
2020/12/09 09:37:00;;;;;;;;;54.00;48.33;;;;;;;;4976514;28;8887;-70
2020/12/09 09:39:27;;;;;;;;;48.33;42.33;;;;;;;;4978281;28;8857;-70
2020/12/09 09:41:57;;;;;;;;;54.00;46.67;;;;;;;;4978018;28;8896;-70
2020/12/09 09:44:24;;;;;;;;;46.67;43.33;;;;;;;;4972044;28;11629;-70
2020/12/09 09:46:51;;;;;;;;;50.00;45.00;;;;;;;;4976055;28;11771;-70
2020/12/09 09:49:18;;;;;;;;;45.33;42.00;;;;;;;;4980598;28;12457;-70
2020/12/09 09:51:45;;;;;;;;;48.33;44.00;;;;;;;;4978900;28;11691;-69
2020/12/09 09:54:12;;;;;;;;;52.33;42.67;;;;;;;;4977596;28;11896;-70
2020/12/09 09:56:42;;;;;;;;;51.00;45.67;;;;;;;;4979177;28;11628;-69
2020/12/09 09:59:09;;;;;;;;;57.33;45.00;;;;;;;;4975305;28;11715;-69
2020/12/09 10:01:36;;;;;;;;;36.00;36.00;;;;;;;;4979446;28;11638;-69
2020/12/09 10:04:06;;;;;;;;;57.33;46.33;;;;;;;;4979369;28;11676;-69
2020/12/09 10:06:33;;;;;;;;;58.00;49.00;;;;;;;;4976400;28;11690;-69
2020/12/09 10:09:01;;;;;;;;;51.33;42.00;;;;;;;;4982064;28;11625;-69
2020/12/09 10:11:28;;;;;;;;;47.00;42.67;;;;;;;;4983366;28;11640;-69
2020/12/09 10:13:55;;;;;;;;;45.67;39.67;;;;;;;;4980845;28;11674;-69
2020/12/09 10:16:25;;;;;;;;;54.67;43.33;;;;;;;;4976573;28;11728;-71
2020/12/09 10:18:52;;;;;;;;;52.33;44.67;;;;;;;;4977972;28;11666;-69
2020/12/09 10:21:23;;;;;;;;;48.67;42.67;;;;;;;;4952558;28;12527;-69
2020/12/09 10:23:51;;;;;;;;;65.33;50.00;;;;;;;;4971129;28;11675;-70
2020/12/09 10:26:19;;;;;;;;;60.67;49.33;;;;;;;;4974091;28;9660;-69
2020/12/09 10:28:46;;;;;;;;;56.67;49.00;;;;;;;;4976151;28;8907;-69
2020/12/09 10:31:13;;;;;;;;;53.33;44.67;;;;;;;;4972161;28;8808;-70
2020/12/09 10:33:40;;;;;;;;;61.00;50.00;;;;;;;;4972452;28;11666;-70
2020/12/09 10:36:07;;;;;;;;;52.33;48.00;;;;;;;;4980510;28;8913;-71
2020/12/09 10:38:34;;;;;;;;;61.67;48.33;;;;;;;;4973680;28;8887;-71
2020/12/09 10:41:01;;;;;;;;;58.00;49.67;;;;;;;;4978686;28;11671;-70
2020/12/09 10:43:28;;;;;;;;;41.67;33.33;;;;;;;;4974559;28;11681;-68
2020/12/09 10:45:55;;;;;;;;;64.33;52.33;;;;;;;;4975472;28;11629;-71
2020/12/09 10:48:22;;;;;;;;;59.00;47.00;;;;;;;;4978993;28;8896;-71
2020/12/09 10:50:49;;;;;;;;;58.00;45.33;;;;;;;;4977977;28;11670;-70
2020/12/09 10:53:16;;;;;;;;;49.33;43.33;;;;;;;;4980679;28;11649;-70
2020/12/09 10:55:43;;;;;;;;;55.33;50.00;;;;;;;;4977965;28;11727;-71
2020/12/09 10:58:10;;;;;;;;;46.67;44.00;;;;;;;;4980280;28;11621;-71
2020/12/09 11:00:37;;;;;;;;;53.00;48.33;;;;;;;;4980125;28;11625;-70
2020/12/09 11:03:04;;;;;;;;;58.67;49.00;;;;;;;;4974852;28;11656;-71
2020/12/09 11:05:31;;;;;;;;;66.33;54.33;;;;;;;;4974039;28;11657;-70
2020/12/09 11:07:58;;;;;;;;;53.33;46.00;;;;;;;;4979669;28;11705;-71
2020/12/09 11:10:25;;;;;;;;;50.50;43.75;;;;;;;;4978177;28;11625;-71
2020/12/09 11:12:52;;;;;;;;;52.50;44.75;;;;;;;;4980155;28;11639;-72
2020/12/09 11:15:18;;;;;;;;;65.00;46.50;;;;;;;;4978247;28;11666;-70
2020/12/09 11:17:46;;;;;;;;;65.00;49.67;;;;;;;;4970233;28;11655;-71
2020/12/09 11:20:13;;;;;;;;;63.00;48.67;;;;;;;;4976081;28;11662;-70
2020/12/09 11:22:40;;;;;;;;;52.33;45.33;;;;;;;;4973407;28;11643;-71
2020/12/09 11:25:07;;;;;;;;;62.67;50.67;;;;;;;;4979594;28;12394;-71
2020/12/09 11:27:33;;;;;;;;;54.00;47.67;;;;;;;;4975080;28;11629;-70
2020/12/09 11:30:00;;;;;;;;;52.00;46.33;;;;;;;;4979473;28;11688;-71
2020/12/09 11:32:32;;;;;;;;;58.67;46.33;;;;;;;;4976238;28;12503;-71
2020/12/09 11:35:00;;;;;;;;;42.00;36.00;;;;;;;;4975723;28;11642;-71
2020/12/09 11:37:27;;;;;;;;;62.67;49.00;;;;;;;;4978874;28;12459;-70
2020/12/09 11:39:54;;;;;;;;;54.50;47.50;;;;;;;;4977754;28;11665;-71
2020/12/09 11:42:21;;;;;;;;;57.00;45.50;;;;;;;;4979539;28;11649;-72
2020/12/09 11:44:48;;;;;;;;;59.75;46.75;;;;;;;;4984390;28;12506;-71
2020/12/09 11:47:15;;;;;;;;;64.67;53.33;;;;;;;;4976578;28;11617;-72
2020/12/09 11:49:41;;;;;;;;;57.33;45.67;;;;;;;;4982546;28;8888;-71
2020/12/09 11:52:10;;;;;;;;;58.33;47.00;;;;;;;;4977252;28;12423;-71
2020/12/09 11:54:36;;;;;;;;;58.33;49.00;;;;;;;;4983517;28;11668;-71
2020/12/09 11:57:04;;;;;;;;;56.00;47.75;;;;;;;;4973759;28;11675;-70
2020/12/09 11:59:30;;;;;;;;;66.00;52.00;;;;;;;;4982266;28;11675;-71
2020/12/09 12:01:57;;;;;;;;;47.75;44.75;;;;;;;;4976844;28;12384;-72
2020/12/09 12:04:24;;;;;;;;;59.00;45.00;;;;;;;;4976116;28;11663;-70
2020/12/09 12:06:50;;;;;;;;;54.25;43.00;;;;;;;;4981386;28;11624;-70
2020/12/09 12:09:18;;;;;;;;;59.25;49.25;;;;;;;;4976866;28;11652;-70
2020/12/09 12:11:45;;;;;;;;;63.00;52.00;;;;;;;;4985845;28;11645;-70
2020/12/09 12:14:11;;;;;;;;;63.25;50.50;;;;;;;;4980252;28;11626;-71
2020/12/09 12:16:38;;;;;;;;;49.00;44.00;;;;;;;;4984979;28;11764;-70
2020/12/09 12:19:05;;;;;;;;;53.00;43.75;;;;;;;;4983275;28;11684;-70
2020/12/09 12:21:32;;;;;;;;;60.25;47.50;;;;;;;;4981185;28;11695;-70
2020/12/09 12:23:58;;;;;;;;;54.75;49.00;;;;;;;;4981450;28;11688;-70
2020/12/09 12:26:26;;;;;;;;;70.67;56.67;;;;;;;;4978445;28;11663;-71
2020/12/09 12:28:52;;;;;;;;;68.33;54.00;;;;;;;;4980034;28;11664;-70
2020/12/09 12:31:20;;;;;;;;;53.75;47.50;;;;;;;;4973204;28;11596;-71
2020/12/09 12:33:48;;;;;;;;;56.25;47.75;;;;;;;;4978219;28;11586;-71
2020/12/09 12:36:15;;;;;;;;;58.00;49.00;;;;;;;;4977205;28;11622;-71
2020/12/09 12:38:42;;;;;;;;;60.25;49.50;;;;;;;;4978658;28;11650;-70
2020/12/09 12:41:09;;;;;;;;;64.25;53.00;;;;;;;;4977231;28;11708;-71
2020/12/09 12:43:37;;;;;;;;;63.75;50.25;;;;;;;;4978503;28;11768;-71
2020/12/09 12:46:04;;;;;;;;;65.67;53.00;;;;;;;;4979285;28;12414;-71
2020/12/09 12:48:31;;;;;;;;;63.75;53.25;;;;;;;;4978600;28;12398;-71
2020/12/09 12:50:57;;;;;;;;;63.50;49.75;;;;;;;;4982485;28;12410;-72
2020/12/09 12:53:24;;;;;;;;;57.75;49.25;;;;;;;;4979518;28;11672;-70
2020/12/09 12:55:51;;;;;;;;;59.00;49.75;;;;;;;;4979653;28;11640;-70
2020/12/09 12:58:18;;;;;;;;;62.50;50.75;;;;;;;;4992860;28;11748;-71
2020/12/09 13:00:46;;;;;;;;;56.25;43.75;;;;;;;;4996827;28;12393;-71
2020/12/09 13:03:13;;;;;;;;;59.00;50.25;;;;;;;;4987027;28;12543;-70
2020/12/09 13:05:39;;;;;;;;;62.25;48.00;;;;;;;;4980761;28;11666;-69
2020/12/09 13:08:06;;;;;;;;;68.50;54.00;;;;;;;;4977064;28;11733;-72
2020/12/09 13:10:33;;;;;;;;;62.75;52.00;;;;;;;;4973896;28;11674;-69
2020/12/09 13:13:00;;;;;;;;;52.50;47.50;;;;;;;;4976525;28;11647;-71
2020/12/09 13:15:27;;;;;;;;;58.50;49.50;;;;;;;;4970020;28;11648;-70
2020/12/09 13:17:54;;;;;;;;;69.00;57.67;;;;;;;;4973721;28;11645;-69
2020/12/09 13:20:21;;;;;;;;;63.67;53.67;;;;;;;;4980916;28;12442;-69
2020/12/09 13:22:48;;;;;;;;;65.33;49.33;;;;;;;;4981701;28;12451;-70
2020/12/09 13:25:14;;;;;;;;;62.25;50.25;;;;;;;;4976886;28;11644;-69
2020/12/09 13:27:41;;;;;;;;;63.75;51.50;;;;;;;;4984370;28;11591;-71
2020/12/09 13:30:09;;;;;;;;;61.33;52.33;;;;;;;;4978763;28;11772;-71
2020/12/09 13:32:36;;;;;;;;;63.67;52.00;;;;;;;;4976677;28;12483;-71
2020/12/09 13:35:04;;;;;;;;;64.00;50.50;;;;;;;;4972187;28;12062;-71
2020/12/09 13:37:31;;;;;;;;;55.25;46.50;;;;;;;;4981993;28;11664;-71
2020/12/09 13:39:58;;;;;;;;;59.50;47.50;;;;;;;;4973199;28;11652;-70
2020/12/09 13:42:25;;;;;;;;;60.50;50.00;;;;;;;;4978812;28;11665;-70
2020/12/09 13:44:52;;;;;;;;;69.67;53.33;;;;;;;;4984446;28;11802;-70
2020/12/09 13:47:19;;;;;;;;;58.25;50.00;;;;;;;;4985537;28;11614;-69
2020/12/09 13:49:46;;;;;;;;;64.75;52.25;;;;;;;;4974719;28;11687;-70
2020/12/09 13:52:14;;;;;;;;;68.50;54.25;;;;;;;;4981816;28;11772;-70
2020/12/09 13:54:41;;;;;;;;;66.33;55.00;;;;;;;;4978588;28;11640;-70
2020/12/09 13:57:08;;;;;;;;;62.67;49.67;;;;;;;;4981832;28;11696;-70
2020/12/09 13:59:35;;;;;;;;;61.50;50.25;;;;;;;;4972405;28;12373;-70
2020/12/09 14:02:02;;;;;;;;;70.00;56.67;;;;;;;;4976118;28;11590;-70
2020/12/09 14:04:29;;;;;;;;;62.67;48.67;;;;;;;;4979397;28;11710;-69
2020/12/09 14:06:58;;;;;;;;;53.67;42.00;;;;;;;;4977150;28;11667;-71
2020/12/09 14:09:26;;;;;;;;;66.67;55.67;;;;;;;;4979828;28;11635;-70
2020/12/09 14:11:53;;;;;;;;;62.75;52.00;;;;;;;;4970427;28;11646;-71
2020/12/09 14:14:20;;;;;;;;;66.33;52.67;;;;;;;;4984171;28;11680;-70
2020/12/09 14:16:47;;;;;;;;;55.00;48.25;;;;;;;;4981722;28;11690;-70
2020/12/09 14:19:17;;;;;;;;;50.00;46.25;;;;;;;;4975442;28;11782;-69
2020/12/09 14:21:44;;;;;;;;;65.67;53.67;;;;;;;;4977066;28;11644;-71
2020/12/09 14:24:12;;;;;;;;;60.25;49.75;;;;;;;;4976363;28;11676;-69
2020/12/09 14:26:43;;;;;;;;;42.00;39.00;;;;;;;;4973715;28;11759;-69
2020/12/09 14:29:10;;;;;;;;;68.33;51.67;;;;;;;;4973669;28;11954;-70